createdAt,value
2023-03-15T00:00:56.184Z,10.27
2023-03-15T00:03:26.351Z,10.93
2023-03-15T00:05:57.984Z,9.47
2023-03-15T00:08:28.609Z,9.73
2023-03-15T00:11:12.786Z,10.60
2023-03-15T00:13:53.102Z,11.33
2023-03-15T00:16:42.211Z,16.57
2023-03-15T00:19:24.870Z,17.43
2023-03-15T00:25:00.977Z,16.83
2023-03-15T00:27:40.730Z,16.77
2023-03-15T00:30:33.343Z,14.27
2023-03-15T00:35:53.754Z,14.80
2023-03-15T00:38:22.047Z,13.57
2023-03-15T00:41:06.343Z,16.90
2023-03-15T00:43:36.405Z,14.77
2023-03-15T00:46:15.972Z,16.50
2023-03-15T00:48:55.576Z,16.50
2023-03-15T00:51:25.331Z,12.33
2023-03-15T00:53:54.898Z,16.53
2023-03-15T00:56:24.700Z,15.10
2023-03-15T00:58:53.568Z,9.73
2023-03-15T01:01:26.833Z,13.90
2023-03-15T01:03:56.380Z,12.43
2023-03-15T01:06:25.745Z,10.77
2023-03-15T01:08:55.780Z,13.63
2023-03-15T01:11:26.001Z,12.10
2023-03-15T01:13:55.521Z,17.83
2023-03-15T01:16:29.465Z,14.90
2023-03-15T01:19:03.139Z,13.43
2023-03-15T01:21:41.316Z,11.30
2023-03-15T01:24:18.114Z,10.70
2023-03-15T01:26:53.900Z,11.83
2023-03-15T01:29:46.200Z,14.53
2023-03-15T01:32:26.205Z,12.23
2023-03-15T01:35:06.456Z,12.47
2023-03-15T01:37:48.794Z,13.33
2023-03-15T01:40:40.661Z,15.07
2023-03-15T01:43:24.426Z,10.53
2023-03-15T01:46:08.613Z,11.70
2023-03-15T01:48:44.928Z,12.10
2023-03-15T01:51:17.269Z,14.30
2023-03-15T01:53:50.423Z,12.20
2023-03-15T01:56:18.598Z,12.20
2023-03-15T01:59:02.121Z,9.90
2023-03-15T02:01:51.622Z,11.63
2023-03-15T02:04:37.110Z,12.30
2023-03-15T02:07:18.691Z,10.63
2023-03-15T02:13:03.973Z,17.10
2023-03-15T02:15:40.540Z,12.03
2023-03-15T02:18:08.719Z,14.23
2023-03-15T02:20:51.270Z,12.50
2023-03-15T02:23:21.517Z,9.97
2023-03-15T02:25:55.717Z,7.60
2023-03-15T02:28:43.325Z,7.83
2023-03-15T02:31:21.913Z,8.57
2023-03-15T02:33:56.258Z,9.67
2023-03-15T02:36:26.996Z,11.80
2023-03-15T02:38:56.421Z,8.47
2023-03-15T02:41:29.457Z,9.13
2023-03-15T02:44:16.876Z,9.27
2023-03-15T02:46:52.890Z,9.17
2023-03-15T02:49:29.232Z,7.67
2023-03-15T02:51:57.756Z,9.27
2023-03-15T02:54:25.625Z,8.73
2023-03-15T02:56:53.448Z,8.03
2023-03-15T02:59:23.084Z,10.83
2023-03-15T03:01:51.250Z,12.70
2023-03-15T03:04:20.727Z,10.20
2023-03-15T03:06:48.698Z,12.57
2023-03-15T03:09:17.729Z,12.90
2023-03-15T03:11:45.639Z,11.73
2023-03-15T03:14:14.700Z,11.10
2023-03-15T03:16:44.170Z,9.93
2023-03-15T03:19:13.116Z,9.50
2023-03-15T03:21:43.280Z,11.03
2023-03-15T03:24:11.895Z,8.50
2023-03-15T03:26:39.785Z,8.57
2023-03-15T03:29:07.634Z,10.27
2023-03-15T03:31:35.758Z,9.40
2023-03-15T03:34:05.234Z,8.27
2023-03-15T03:36:34.068Z,9.13
2023-03-15T03:39:04.590Z,10.93
2023-03-15T03:41:32.460Z,7.60
2023-03-15T03:44:15.603Z,8.07
2023-03-15T03:46:51.938Z,9.37
2023-03-15T03:52:15.783Z,8.00
2023-03-15T03:54:45.209Z,7.83
2023-03-15T03:57:14.595Z,7.80
2023-03-15T03:59:54.773Z,7.07
2023-03-15T04:02:34.282Z,8.47
2023-03-15T04:05:11.831Z,9.60
2023-03-15T04:07:42.887Z,9.43
2023-03-15T04:10:14.810Z,11.80
2023-03-15T04:12:55.145Z,13.93
2023-03-15T04:15:29.414Z,17.60
2023-03-15T04:18:08.182Z,17.57
2023-03-15T04:20:51.938Z,15.40
2023-03-15T04:23:28.122Z,14.07
2023-03-15T04:26:03.974Z,10.37
2023-03-15T04:28:31.951Z,16.93
2023-03-15T04:30:59.860Z,10.80
2023-03-15T04:33:27.915Z,9.70
2023-03-15T04:35:57.913Z,9.03
2023-03-15T04:38:27.061Z,9.57
2023-03-15T04:40:55.777Z,9.70
2023-03-15T04:43:25.427Z,7.27
2023-03-15T04:45:57.760Z,6.67
2023-03-15T04:48:34.132Z,9.63
2023-03-15T04:51:14.544Z,11.60
2023-03-15T04:53:46.172Z,12.43
2023-03-15T04:56:16.937Z,10.47
2023-03-15T04:58:44.884Z,10.30
2023-03-15T05:01:18.273Z,10.83
2023-03-15T05:03:47.189Z,12.13
2023-03-15T05:06:29.552Z,11.67
2023-03-15T05:08:59.051Z,12.60
2023-03-15T05:11:27.760Z,14.17
2023-03-15T05:14:12.415Z,12.37
2023-03-15T05:16:51.479Z,17.57
2023-03-15T05:19:20.627Z,22.97
2023-03-15T05:21:55.298Z,14.20
2023-03-15T05:24:32.857Z,14.90
2023-03-15T05:27:03.530Z,12.03
2023-03-15T05:29:32.181Z,13.67
2023-03-15T05:32:10.695Z,13.70
2023-03-15T05:34:38.754Z,7.93
2023-03-15T05:37:16.153Z,12.07
2023-03-15T05:39:46.110Z,11.20
2023-03-15T05:45:34.426Z,11.70
2023-03-15T05:48:04.924Z,8.33
2023-03-15T05:53:29.080Z,11.20
2023-03-15T05:56:01.777Z,6.23
2023-03-15T05:58:29.717Z,5.50
2023-03-15T06:00:58.299Z,8.27
2023-03-15T06:03:26.628Z,6.47
2023-03-15T06:06:01.668Z,5.80
2023-03-15T06:08:38.297Z,9.27
2023-03-15T06:11:11.448Z,7.43
2023-03-15T06:13:45.157Z,7.67
2023-03-15T06:16:32.088Z,8.87
2023-03-15T06:19:03.023Z,7.27
2023-03-15T06:21:31.918Z,8.23
2023-03-15T06:24:03.455Z,7.00
2023-03-15T06:26:31.539Z,9.60
2023-03-15T06:28:59.376Z,9.87
2023-03-15T06:31:27.263Z,9.73
2023-03-15T06:33:55.161Z,12.50
2023-03-15T06:36:24.546Z,11.83
2023-03-15T06:38:54.270Z,9.00
2023-03-15T06:41:23.793Z,9.60
2023-03-15T06:43:51.967Z,10.77
2023-03-15T06:46:19.946Z,7.43
2023-03-15T06:48:47.874Z,8.03
2023-03-15T06:51:15.957Z,7.60
2023-03-15T06:53:43.938Z,6.57
2023-03-15T06:56:12.061Z,8.80
2023-03-15T06:58:41.687Z,8.73
2023-03-15T07:01:12.673Z,12.77
2023-03-15T07:03:40.702Z,8.60
2023-03-15T07:06:08.783Z,6.10
2023-03-15T07:08:36.807Z,7.27
2023-03-15T07:11:06.426Z,5.70
2023-03-15T07:13:34.452Z,6.03
2023-03-15T07:16:03.800Z,10.40
2023-03-15T07:18:33.702Z,6.43
2023-03-15T07:21:03.667Z,6.97
2023-03-15T07:23:32.019Z,6.60
2023-03-15T07:25:59.917Z,6.90
2023-03-15T07:28:28.495Z,11.80
2023-03-15T07:30:57.712Z,7.13
2023-03-15T07:33:29.301Z,5.23
2023-03-15T07:35:57.595Z,6.87
2023-03-15T07:38:27.085Z,10.27
2023-03-15T07:40:55.058Z,5.83
2023-03-15T07:43:23.395Z,6.17
2023-03-15T07:45:51.774Z,8.83
2023-03-15T07:48:19.702Z,7.77
2023-03-15T07:50:49.620Z,8.80
2023-03-15T07:53:17.594Z,7.63
2023-03-15T07:55:47.761Z,8.30
2023-03-15T07:58:17.971Z,7.85
2023-03-15T08:00:47.876Z,13.40
2023-03-15T08:03:15.893Z,9.85
2023-03-15T08:05:44.035Z,6.70
2023-03-15T08:08:13.318Z,5.90
2023-03-15T08:10:41.300Z,7.30
2023-03-15T08:13:09.708Z,7.43
2023-03-15T08:15:37.816Z,6.10
2023-03-15T08:18:06.545Z,7.28
2023-03-15T08:20:34.955Z,7.63
2023-03-15T08:23:02.979Z,7.67
2023-03-15T08:25:33.138Z,5.20
2023-03-15T08:28:01.842Z,7.20
2023-03-15T08:30:29.867Z,7.05
2023-03-15T08:32:58.014Z,6.63
2023-03-15T08:35:26.085Z,5.20
2023-03-15T08:37:54.215Z,5.85
2023-03-15T08:40:25.751Z,8.60
2023-03-15T08:42:55.724Z,6.28
2023-03-15T08:45:24.190Z,11.02
2023-03-15T08:47:55.981Z,8.52
2023-03-15T08:50:24.386Z,5.93
2023-03-15T08:52:52.391Z,7.38
2023-03-15T08:55:20.824Z,9.45
2023-03-15T08:57:48.812Z,6.57
2023-03-15T09:00:20.798Z,7.25
2023-03-15T09:02:49.915Z,6.70
2023-03-15T09:05:18.482Z,6.73
2023-03-15T09:07:47.827Z,6.97
2023-03-15T09:10:17.694Z,6.23
2023-03-15T09:12:49.890Z,5.57
2023-03-15T09:15:20.177Z,5.40
2023-03-15T09:17:50.314Z,6.53
2023-03-15T09:20:19.357Z,5.23
2023-03-15T09:22:51.974Z,8.43
2023-03-15T09:25:20.228Z,4.60
2023-03-15T09:27:48.223Z,5.83
2023-03-15T09:30:16.512Z,4.70
2023-03-15T09:32:46.209Z,5.93
2023-03-15T09:35:16.108Z,10.83
2023-03-15T09:37:44.201Z,7.57
2023-03-15T09:40:19.848Z,6.87
2023-03-15T09:43:00.558Z,13.27
2023-03-15T09:45:33.166Z,4.27
2023-03-15T09:48:09.749Z,5.13
2023-03-15T09:50:42.542Z,7.70
2023-03-15T09:53:15.875Z,10.33
2023-03-15T09:55:47.055Z,8.53
2023-03-15T09:58:19.421Z,6.40
2023-03-15T10:00:50.803Z,6.27
2023-03-15T10:03:28.189Z,5.37
2023-03-15T10:06:00.191Z,5.13
2023-03-15T10:08:28.637Z,7.83
2023-03-15T10:11:07.336Z,13.77
2023-03-15T10:13:47.902Z,6.87
2023-03-15T10:16:30.166Z,7.87
2023-03-15T10:19:13.763Z,6.53
2023-03-15T10:21:53.230Z,8.70
2023-03-15T10:24:26.271Z,5.80
2023-03-15T10:26:55.036Z,8.30
2023-03-15T10:29:28.109Z,8.87
2023-03-15T10:31:56.265Z,7.73
2023-03-15T10:34:26.934Z,6.83
2023-03-15T10:36:55.659Z,6.30
2023-03-15T10:39:26.171Z,7.60
2023-03-15T10:41:54.095Z,5.10
2023-03-15T10:44:25.396Z,7.33
2023-03-15T10:47:21.599Z,8.97
2023-03-15T10:49:57.587Z,5.83
2023-03-15T10:52:35.406Z,7.97
2023-03-15T10:55:08.229Z,5.40
2023-03-15T10:57:40.207Z,5.63
2023-03-15T11:00:24.213Z,8.67
2023-03-15T11:02:53.733Z,6.70
2023-03-15T11:05:23.219Z,7.20
2023-03-15T11:07:58.800Z,6.83
2023-03-15T11:10:28.939Z,6.17
2023-03-15T11:13:14.492Z,7.47
2023-03-15T11:15:50.305Z,8.37
2023-03-15T11:18:20.714Z,7.80
2023-03-15T11:20:50.186Z,9.37
2023-03-15T11:23:23.466Z,7.20
2023-03-15T11:25:51.421Z,8.80
2023-03-15T11:28:23.674Z,8.27
2023-03-15T11:30:51.811Z,8.40
2023-03-15T11:33:38.947Z,13.97
2023-03-15T11:36:14.460Z,9.13
2023-03-15T11:38:45.066Z,8.53
2023-03-15T11:41:21.879Z,7.73
2023-03-15T11:43:57.651Z,7.60
2023-03-15T11:46:31.227Z,12.40
2023-03-15T11:49:06.078Z,6.90
2023-03-15T11:51:37.528Z,10.30
2023-03-15T11:54:13.611Z,9.80
2023-03-15T11:56:55.136Z,11.60
2023-03-15T11:59:27.187Z,8.17
2023-03-15T12:01:59.690Z,15.07
2023-03-15T12:04:51.064Z,7.40
2023-03-15T12:07:38.524Z,8.37
2023-03-15T12:10:34.343Z,8.30
2023-03-15T12:13:09.470Z,8.83
2023-03-15T12:15:47.003Z,10.03
2023-03-15T12:18:28.759Z,23.07
2023-03-15T12:21:12.910Z,7.83
2023-03-15T12:23:46.598Z,12.20
2023-03-15T12:26:25.844Z,8.83
2023-03-15T12:29:05.100Z,8.77
2023-03-15T12:31:52.668Z,8.07
2023-03-15T12:34:27.550Z,6.93
2023-03-15T12:37:01.763Z,14.77
2023-03-15T12:39:46.959Z,13.07
2023-03-15T12:42:32.015Z,12.33
2023-03-15T12:45:34.901Z,10.13
2023-03-15T12:48:32.106Z,11.17
2023-03-15T12:51:06.110Z,11.47
2023-03-15T12:53:47.681Z,13.27
2023-03-15T12:56:47.556Z,32.23
2023-03-15T12:59:26.243Z,11.20
2023-03-15T13:01:56.380Z,13.10
2023-03-15T13:04:24.414Z,10.53
2023-03-15T13:07:10.061Z,14.30
2023-03-15T13:09:53.848Z,17.67
2023-03-15T13:12:29.548Z,14.67
2023-03-15T13:15:05.662Z,11.40
2023-03-15T13:17:42.015Z,10.10
2023-03-15T13:20:32.084Z,9.10
2023-03-15T13:23:10.706Z,11.57
2023-03-15T13:25:49.598Z,9.33
2023-03-15T13:28:23.676Z,10.53
2023-03-15T13:30:53.989Z,12.10
2023-03-15T13:33:24.704Z,8.27
2023-03-15T13:36:01.322Z,11.23
2023-03-15T13:38:32.918Z,12.43
2023-03-15T13:41:03.653Z,11.57
2023-03-15T13:43:35.723Z,15.90
2023-03-15T13:46:04.865Z,9.67
2023-03-15T13:48:34.739Z,9.03
2023-03-15T13:51:06.523Z,15.07
2023-03-15T13:53:49.128Z,11.60
2023-03-15T13:56:19.777Z,13.33
2023-03-15T13:58:52.084Z,8.10
2023-03-15T14:01:23.135Z,8.93
2023-03-15T14:03:58.274Z,26.80
2023-03-15T14:06:28.007Z,12.33
2023-03-15T14:09:02.110Z,7.73
2023-03-15T14:11:37.450Z,7.70
2023-03-15T14:14:23.342Z,9.63
2023-03-15T14:17:04.770Z,10.10
2023-03-15T14:19:35.937Z,7.57
2023-03-15T14:22:13.799Z,10.17
2023-03-15T14:24:44.358Z,7.17
2023-03-15T14:27:17.602Z,7.17
2023-03-15T14:29:50.925Z,15.90
2023-03-15T14:32:29.174Z,8.27
2023-03-15T14:35:03.371Z,9.13
2023-03-15T14:37:37.500Z,8.93
2023-03-15T14:40:20.941Z,8.97
2023-03-15T14:42:50.402Z,6.93
2023-03-15T14:45:22.801Z,9.10
2023-03-15T14:47:57.716Z,12.10
2023-03-15T14:50:28.497Z,16.40
2023-03-15T14:52:58.330Z,13.43
2023-03-15T14:55:33.532Z,7.93
2023-03-15T14:58:02.085Z,11.77
2023-03-15T15:00:33.949Z,11.40
2023-03-15T15:03:04.299Z,9.20
2023-03-15T15:05:35.100Z,10.40
2023-03-15T15:08:06.194Z,14.43
2023-03-15T15:10:35.548Z,11.43
2023-03-15T15:13:06.662Z,8.77
2023-03-15T15:15:54.126Z,9.70
2023-03-15T15:18:23.825Z,11.23
2023-03-15T15:20:55.617Z,13.40
2023-03-15T15:23:26.803Z,10.57
2023-03-15T15:25:58.683Z,12.70
2023-03-15T15:28:35.302Z,9.53
2023-03-15T15:31:07.131Z,10.27
2023-03-15T15:33:35.286Z,10.53
2023-03-15T15:36:03.431Z,10.80
2023-03-15T15:38:39.153Z,13.87
2023-03-15T15:41:13.117Z,11.17
2023-03-15T15:43:41.511Z,8.73
2023-03-15T15:46:13.268Z,12.13
2023-03-15T15:48:41.850Z,9.30
2023-03-15T15:51:24.432Z,11.97
2023-03-15T15:53:53.500Z,9.93
2023-03-15T15:56:21.874Z,10.80
2023-03-15T15:58:50.456Z,7.87
2023-03-15T16:01:19.936Z,9.10
2023-03-15T16:03:49.252Z,15.23
2023-03-15T16:06:20.147Z,11.10
2023-03-15T16:08:51.461Z,12.77
2023-03-15T16:11:20.775Z,12.30
2023-03-15T16:13:51.745Z,12.90
2023-03-15T16:16:22.898Z,11.20
2023-03-15T16:18:51.087Z,12.97
2023-03-15T16:21:26.100Z,13.33
2023-03-15T16:23:58.985Z,14.00
2023-03-15T16:26:27.096Z,12.93
2023-03-15T16:28:55.364Z,17.53
2023-03-15T16:31:24.796Z,19.47
2023-03-15T16:33:52.741Z,18.30
2023-03-15T16:36:22.617Z,15.93
2023-03-15T16:38:50.775Z,19.67
2023-03-15T16:41:19.197Z,18.17
2023-03-15T16:43:49.184Z,19.30
2023-03-15T16:46:18.421Z,15.90
2023-03-15T16:48:47.825Z,14.23
2023-03-15T16:51:17.442Z,19.47
2023-03-15T16:53:47.620Z,15.90
2023-03-15T16:56:16.741Z,15.50
2023-03-15T16:58:47.763Z,14.93
2023-03-15T17:01:15.804Z,12.80
2023-03-15T17:03:44.130Z,12.53
2023-03-15T17:06:20.247Z,13.90
2023-03-15T17:08:49.012Z,13.57
2023-03-15T17:11:17.474Z,15.43
2023-03-15T17:13:45.431Z,17.77
2023-03-15T17:16:15.165Z,18.57
2023-03-15T17:18:43.790Z,17.97
2023-03-15T17:21:14.507Z,22.40
2023-03-15T17:23:45.924Z,24.10
2023-03-15T17:26:17.934Z,23.33
2023-03-15T17:28:46.429Z,14.80
2023-03-15T17:31:31.086Z,19.30
2023-03-15T17:33:58.986Z,16.90
2023-03-15T17:36:30.496Z,13.67
2023-03-15T17:38:59.916Z,15.73
2023-03-15T17:41:30.304Z,13.13
2023-03-15T17:43:58.932Z,14.33
2023-03-15T17:46:31.353Z,12.07
2023-03-15T17:49:00.280Z,12.50
2023-03-15T17:51:31.477Z,12.77
2023-03-15T17:54:01.293Z,16.23
2023-03-15T17:56:30.412Z,9.00
2023-03-15T17:58:58.754Z,12.00
2023-03-15T18:01:28.777Z,15.23
2023-03-15T18:03:58.412Z,15.80
2023-03-15T18:06:26.467Z,17.40
2023-03-15T18:08:54.335Z,10.70
2023-03-15T18:11:28.387Z,11.17
2023-03-15T18:13:57.002Z,8.53
2023-03-15T18:16:26.543Z,14.43
2023-03-15T18:18:54.644Z,10.93
2023-03-15T18:21:25.049Z,10.67
2023-03-15T18:23:53.630Z,14.57
2023-03-15T18:26:25.133Z,11.83
2023-03-15T18:29:13.139Z,10.13
2023-03-15T18:31:44.439Z,11.37
2023-03-15T18:34:21.906Z,11.60
2023-03-15T18:36:52.749Z,12.47
2023-03-15T18:39:23.225Z,10.33
2023-03-15T18:41:54.884Z,11.53
2023-03-15T18:44:27.296Z,10.10
2023-03-15T18:46:57.599Z,11.83
2023-03-15T18:49:31.508Z,11.17
2023-03-15T18:52:02.694Z,12.70
2023-03-15T18:54:44.249Z,11.20
2023-03-15T18:57:25.600Z,7.73
2023-03-15T18:59:59.318Z,9.63
2023-03-15T19:02:33.792Z,9.70
2023-03-15T19:05:02.680Z,11.93
2023-03-15T19:07:33.283Z,10.07
2023-03-15T19:10:01.873Z,7.10
2023-03-15T19:12:34.624Z,12.90
2023-03-15T19:15:10.686Z,12.57
2023-03-15T19:17:38.913Z,14.53
2023-03-15T19:20:16.659Z,15.40
2023-03-15T19:22:59.816Z,14.00
2023-03-15T19:25:33.142Z,15.27
2023-03-15T19:28:05.264Z,16.77
2023-03-15T19:30:37.445Z,17.83
2023-03-15T19:33:09.266Z,18.60
2023-03-15T19:35:38.545Z,16.63
2023-03-15T19:38:08.535Z,14.83
2023-03-15T19:40:48.408Z,12.23
2023-03-15T19:43:19.075Z,15.30
2023-03-15T19:45:54.196Z,10.03
2023-03-15T19:48:29.932Z,13.93
2023-03-15T19:51:22.390Z,13.93
2023-03-15T19:54:05.721Z,10.37
2023-03-15T19:56:35.875Z,17.23
2023-03-15T19:59:04.747Z,10.37
2023-03-15T20:01:40.456Z,11.53
2023-03-15T20:04:16.697Z,9.87
2023-03-15T20:07:03.648Z,10.30
2023-03-15T20:09:41.670Z,10.20
2023-03-15T20:15:16.303Z,12.63
2023-03-15T20:17:48.677Z,11.07
2023-03-15T20:20:16.768Z,10.07
2023-03-15T20:22:46.494Z,12.13
2023-03-15T20:25:16.201Z,12.97
2023-03-15T20:27:44.572Z,14.03
2023-03-15T20:30:20.636Z,14.80
2023-03-15T20:32:50.473Z,13.90
2023-03-15T20:35:18.848Z,13.67
2023-03-15T20:37:48.020Z,14.27
2023-03-15T20:40:27.379Z,14.53
2023-03-15T20:42:57.951Z,17.43
2023-03-15T20:45:29.397Z,16.20
2023-03-15T20:48:07.489Z,15.77
2023-03-15T20:50:41.254Z,14.03
2023-03-15T20:53:24.957Z,14.90
2023-03-15T20:55:57.388Z,14.20
2023-03-15T21:01:21.598Z,11.87
2023-03-15T21:03:53.603Z,9.07
2023-03-15T21:06:23.985Z,5.97
2023-03-15T21:09:02.590Z,6.40
2023-03-15T21:11:30.890Z,5.87
2023-03-15T21:14:11.673Z,6.47
2023-03-15T21:16:49.608Z,3.97
2023-03-15T21:19:27.364Z,3.90
2023-03-15T21:22:14.888Z,5.03
2023-03-15T21:24:55.095Z,2.90
2023-03-15T21:27:27.548Z,3.10
2023-03-15T21:29:56.840Z,2.93
2023-03-15T21:32:36.163Z,3.27
2023-03-15T21:35:24.184Z,3.00
2023-03-15T21:37:52.356Z,2.50
2023-03-15T21:40:21.883Z,3.23
2023-03-15T21:42:50.687Z,2.37
2023-03-15T21:45:23.270Z,2.60
2023-03-15T21:48:02.482Z,2.67
2023-03-15T21:50:38.692Z,2.53
2023-03-15T21:53:20.371Z,2.07
2023-03-15T21:56:00.839Z,2.40
2023-03-15T21:58:36.361Z,2.10
2023-03-15T22:04:35.209Z,1.90
2023-03-15T22:07:08.614Z,2.47
2023-03-15T22:09:53.607Z,1.70
2023-03-15T22:12:21.804Z,1.60
2023-03-15T22:15:00.034Z,5.23
2023-03-15T22:17:48.497Z,2.17
2023-03-15T22:20:17.162Z,2.70
2023-03-15T22:22:47.581Z,1.80
2023-03-15T22:25:19.126Z,2.80
2023-03-15T22:27:48.207Z,1.40
2023-03-15T22:30:19.087Z,1.30
2023-03-15T22:33:22.512Z,2.13
2023-03-15T22:36:51.033Z,1.53
2023-03-15T22:39:49.083Z,1.40
2023-03-15T22:48:12.774Z,1.50
2023-03-15T22:50:49.142Z,1.47
2023-03-15T23:02:46.353Z,1.40
2023-03-15T23:05:15.265Z,2.23
2023-03-15T23:08:38.605Z,2.57
2023-03-15T23:11:07.026Z,1.30
2023-03-15T23:14:00.299Z,2.20
2023-03-15T23:16:50.482Z,1.50
2023-03-15T23:19:18.599Z,1.57
2023-03-15T23:21:55.806Z,1.43
2023-03-15T23:24:50.694Z,1.33
2023-03-15T23:27:39.587Z,1.30
2023-03-15T23:30:41.340Z,1.60
2023-03-15T23:33:34.267Z,1.57
2023-03-15T23:36:02.807Z,1.50
2023-03-15T23:38:41.689Z,1.40
2023-03-15T23:41:25.584Z,1.40
2023-03-15T23:43:54.209Z,1.43
2023-03-15T23:46:24.771Z,1.40
2023-03-15T23:48:53.433Z,1.60
2023-03-15T23:51:22.163Z,2.73
2023-03-15T23:56:53.455Z,1.60
2023-03-15T23:59:58.623Z,1.37
